createdAt,value
2019-05-22T00:00:07.986Z,1003.34
2019-05-22T00:01:07.967Z,1003.37
2019-05-22T00:02:07.964Z,1003.36
2019-05-22T00:03:07.989Z,1003.38
2019-05-22T00:04:07.936Z,1003.35
2019-05-22T00:05:07.925Z,1003.34
2019-05-22T00:06:07.919Z,1003.36
2019-05-22T00:07:07.908Z,1003.36
2019-05-22T00:08:07.897Z,1003.34
2019-05-22T00:09:07.903Z,1003.36
2019-05-22T00:10:07.870Z,1003.36
2019-05-22T00:11:07.861Z,1003.35
2019-05-22T00:12:07.855Z,1003.32
2019-05-22T00:13:07.845Z,1003.33
2019-05-22T00:14:07.831Z,1003.33
2019-05-22T00:15:07.827Z,1003.29
2019-05-22T00:16:07.810Z,1003.30
2019-05-22T00:17:07.796Z,1003.27
2019-05-22T00:18:07.783Z,1003.26
2019-05-22T00:19:07.771Z,1003.28
2019-05-22T00:20:07.774Z,1003.28
2019-05-22T00:21:07.755Z,1003.24
2019-05-22T00:22:07.741Z,1003.25
2019-05-22T00:23:07.743Z,1003.27
2019-05-22T00:24:07.720Z,1003.28
2019-05-22T00:25:18.763Z,1003.24
2019-05-22T00:26:07.703Z,1003.24
2019-05-22T00:27:07.689Z,1003.23
2019-05-22T00:28:07.676Z,1003.22
2019-05-22T00:29:07.670Z,1003.23
2019-05-22T00:30:07.660Z,1003.19
2019-05-22T00:31:07.705Z,1003.21
2019-05-22T00:32:07.634Z,1003.19
2019-05-22T00:33:07.627Z,1003.22
2019-05-22T00:34:07.611Z,1003.22
2019-05-22T00:35:07.601Z,1003.21
2019-05-22T00:36:07.598Z,1003.25
2019-05-22T00:37:07.588Z,1003.28
2019-05-22T00:38:07.593Z,1003.27
2019-05-22T00:39:07.567Z,1003.30
2019-05-22T00:40:07.549Z,1003.26
2019-05-22T00:41:07.555Z,1003.28
2019-05-22T00:42:07.533Z,1003.23
2019-05-22T00:43:13.818Z,1003.22
2019-05-22T00:44:08.504Z,1003.25
2019-05-22T00:45:07.495Z,1003.20
2019-05-22T00:46:07.479Z,1003.20
2019-05-22T00:47:07.482Z,1003.19
2019-05-22T00:48:07.457Z,1003.15
2019-05-22T00:49:07.450Z,1003.12
2019-05-22T00:50:07.441Z,1003.12
2019-05-22T00:51:07.429Z,1003.12
2019-05-22T00:52:07.461Z,1003.13
2019-05-22T00:53:07.412Z,1003.11
2019-05-22T00:54:07.398Z,1003.15
2019-05-22T00:55:07.381Z,1003.09
2019-05-22T00:56:18.889Z,1003.17
2019-05-22T00:57:07.363Z,1003.11
2019-05-22T00:58:07.357Z,1003.10
2019-05-22T00:59:07.379Z,1003.06
2019-05-22T01:00:07.337Z,1003.07
2019-05-22T01:01:07.319Z,1003.04
2019-05-22T01:02:07.310Z,1003.08
2019-05-22T01:03:07.301Z,1003.06
2019-05-22T01:04:07.283Z,1003.11
2019-05-22T01:05:07.282Z,1003.10
2019-05-22T01:06:07.269Z,1003.14
2019-05-22T01:07:07.266Z,1003.14
2019-05-22T01:08:07.239Z,1003.14
2019-05-22T01:09:07.228Z,1003.12
2019-05-22T01:10:07.486Z,1003.17
2019-05-22T01:11:07.209Z,1003.12
2019-05-22T01:12:07.199Z,1003.16
2019-05-22T01:13:07.190Z,1003.15
2019-05-22T01:14:07.185Z,1003.16
2019-05-22T01:15:07.167Z,1003.12
2019-05-22T01:16:07.166Z,1003.15
2019-05-22T01:17:07.150Z,1003.15
2019-05-22T01:18:07.145Z,1003.09
2019-05-22T01:19:07.119Z,1003.11
2019-05-22T01:20:07.114Z,1003.08
2019-05-22T01:21:07.110Z,1003.08
2019-05-22T01:22:07.090Z,1003.06
2019-05-22T01:23:07.079Z,1003.10
2019-05-22T01:24:07.066Z,1003.10
2019-05-22T01:25:07.067Z,1003.09
2019-05-22T01:26:07.059Z,1003.12
2019-05-22T01:27:17.800Z,1003.11
2019-05-22T01:28:07.022Z,1003.16
2019-05-22T01:29:07.020Z,1003.15
2019-05-22T01:30:07.003Z,1003.16
2019-05-22T01:31:07.086Z,1003.11
2019-05-22T01:32:06.984Z,1003.13
2019-05-22T01:33:06.974Z,1003.19
2019-05-22T01:34:06.957Z,1003.17
2019-05-22T01:35:06.949Z,1003.16
2019-05-22T01:36:06.938Z,1003.17
2019-05-22T01:37:06.996Z,1003.18
2019-05-22T01:38:06.921Z,1003.22
2019-05-22T01:39:06.909Z,1003.19
2019-05-22T01:40:06.895Z,1003.20
2019-05-22T01:41:06.886Z,1003.19
2019-05-22T01:42:06.873Z,1003.19
2019-05-22T01:43:06.896Z,1003.18
2019-05-22T01:44:06.865Z,1003.21
2019-05-22T01:45:07.128Z,1003.13
2019-05-22T01:46:06.829Z,1003.17
2019-05-22T01:47:06.828Z,1003.16
2019-05-22T01:48:06.808Z,1003.10
2019-05-22T01:49:06.820Z,1003.12
2019-05-22T01:50:06.794Z,1003.10
2019-05-22T01:51:06.786Z,1003.09
2019-05-22T01:52:06.765Z,1003.08
2019-05-22T01:53:06.754Z,1003.08
2019-05-22T01:54:06.746Z,1003.07
2019-05-22T01:55:06.741Z,1003.07
2019-05-22T01:56:06.950Z,1003.06
2019-05-22T01:57:06.707Z,1003.12
2019-05-22T01:58:18.291Z,1003.09
2019-05-22T01:59:06.723Z,1003.10
2019-05-22T02:00:06.682Z,1003.13
2019-05-22T02:01:06.664Z,1003.10
2019-05-22T02:02:06.659Z,1003.14
2019-05-22T02:03:06.647Z,1003.11
2019-05-22T02:04:06.642Z,1003.12
2019-05-22T02:05:06.660Z,1003.12
2019-05-22T02:06:06.626Z,1003.17
2019-05-22T02:07:06.605Z,1003.14
2019-05-22T02:08:06.591Z,1003.15
2019-05-22T02:09:06.580Z,1003.18
2019-05-22T02:10:06.568Z,1003.19
2019-05-22T02:11:06.593Z,1003.16
2019-05-22T02:12:06.547Z,1003.18
2019-05-22T02:13:06.534Z,1003.17
2019-05-22T02:14:06.528Z,1003.19
2019-05-22T02:15:06.513Z,1003.18
2019-05-22T02:16:06.505Z,1003.18
2019-05-22T02:17:06.532Z,1003.17
2019-05-22T02:18:06.484Z,1003.19
2019-05-22T02:19:06.469Z,1003.16
2019-05-22T02:20:06.840Z,1003.15
2019-05-22T02:21:06.454Z,1003.12
2019-05-22T02:22:06.441Z,1003.14
2019-05-22T02:23:06.468Z,1003.14
2019-05-22T02:24:06.418Z,1003.11
2019-05-22T02:25:06.408Z,1003.13
2019-05-22T02:26:06.399Z,1003.11
2019-05-22T02:27:06.385Z,1003.14
2019-05-22T02:28:06.378Z,1003.06
2019-05-22T02:29:16.907Z,1003.06
2019-05-22T02:30:06.354Z,1003.04
2019-05-22T02:31:06.346Z,1003.02
2019-05-22T02:32:06.332Z,1003.00
2019-05-22T02:33:06.351Z,1003.01
2019-05-22T02:34:06.338Z,1002.96
2019-05-22T02:35:06.298Z,1003.03
2019-05-22T02:36:06.290Z,1003.00
2019-05-22T02:37:06.283Z,1002.97
2019-05-22T02:38:06.266Z,1002.96
2019-05-22T02:39:06.264Z,1002.97
2019-05-22T02:40:06.247Z,1002.97
2019-05-22T02:41:06.237Z,1002.91
2019-05-22T02:42:06.229Z,1002.97
2019-05-22T02:43:06.286Z,1002.98
2019-05-22T02:44:06.201Z,1002.98
2019-05-22T02:45:06.187Z,1002.98
2019-05-22T02:46:06.180Z,1002.97
2019-05-22T02:47:19.012Z,1002.96
2019-05-22T02:48:07.179Z,1003.00
2019-05-22T02:49:06.152Z,1003.00
2019-05-22T02:50:06.142Z,1003.01
2019-05-22T02:51:06.135Z,1003.00
2019-05-22T02:52:06.118Z,1003.00
2019-05-22T02:53:06.115Z,1002.96
2019-05-22T02:54:06.101Z,1002.93
2019-05-22T02:55:06.085Z,1003.00
2019-05-22T02:56:06.071Z,1002.99
2019-05-22T02:57:06.063Z,1002.97
2019-05-22T02:58:06.050Z,1002.93
2019-05-22T02:59:06.050Z,1002.95
2019-05-22T03:00:18.096Z,1002.89
2019-05-22T03:01:06.024Z,1002.88
2019-05-22T03:02:06.004Z,1002.90
2019-05-22T03:03:05.998Z,1002.88
2019-05-22T03:04:06.033Z,1002.88
2019-05-22T03:05:05.985Z,1002.88
2019-05-22T03:06:05.961Z,1002.92
2019-05-22T03:07:05.951Z,1002.90
2019-05-22T03:08:05.942Z,1002.85
2019-05-22T03:09:05.933Z,1002.90
2019-05-22T03:10:05.945Z,1002.87
2019-05-22T03:11:05.914Z,1002.84
2019-05-22T03:12:05.909Z,1002.81
2019-05-22T03:13:05.891Z,1002.84
2019-05-22T03:14:05.880Z,1002.83
2019-05-22T03:15:05.949Z,1002.81
2019-05-22T03:16:05.862Z,1002.78
2019-05-22T03:17:05.850Z,1002.76
2019-05-22T03:18:05.841Z,1002.73
2019-05-22T03:19:09.071Z,1002.74
2019-05-22T03:20:05.808Z,1002.73
2019-05-22T03:21:05.808Z,1002.70
2019-05-22T03:22:05.795Z,1002.64
2019-05-22T03:23:05.776Z,1002.66
2019-05-22T03:24:05.770Z,1002.61
2019-05-22T03:25:05.755Z,1002.61
2019-05-22T03:26:05.775Z,1002.58
2019-05-22T03:27:05.739Z,1002.62
2019-05-22T03:28:05.721Z,1002.58
2019-05-22T03:29:05.711Z,1002.63
2019-05-22T03:30:05.711Z,1002.61
2019-05-22T03:31:16.101Z,1002.61
2019-05-22T03:32:05.732Z,1002.62
2019-05-22T03:33:05.718Z,1002.63
2019-05-22T03:34:05.666Z,1002.61
2019-05-22T03:35:05.650Z,1002.69
2019-05-22T03:36:05.664Z,1002.67
2019-05-22T03:37:05.677Z,1002.68
2019-05-22T03:38:05.621Z,1002.61
2019-05-22T03:39:05.613Z,1002.69
2019-05-22T03:40:05.595Z,1002.69
2019-05-22T03:41:05.583Z,1002.66
2019-05-22T03:42:05.574Z,1002.73
2019-05-22T03:43:05.573Z,1002.78
2019-05-22T03:44:05.553Z,1002.67
2019-05-22T03:45:05.542Z,1002.73
2019-05-22T03:46:05.535Z,1002.73
2019-05-22T03:47:05.522Z,1002.73
2019-05-22T03:48:05.515Z,1002.74
2019-05-22T03:49:05.556Z,1002.75
2019-05-22T03:50:05.484Z,1002.67
2019-05-22T03:51:05.475Z,1002.65
2019-05-22T03:52:05.462Z,1002.64
2019-05-22T03:53:05.449Z,1002.68
2019-05-22T03:54:05.478Z,1002.72
2019-05-22T03:55:05.434Z,1002.66
2019-05-22T03:56:05.420Z,1002.66
2019-05-22T03:57:05.407Z,1002.68
2019-05-22T03:58:05.397Z,1002.75
2019-05-22T03:59:05.385Z,1002.71
2019-05-22T04:00:05.422Z,1002.71
2019-05-22T04:01:05.363Z,1002.57
2019-05-22T04:02:15.383Z,1002.63
2019-05-22T04:03:05.345Z,1002.59
2019-05-22T04:04:05.339Z,1002.60
2019-05-22T04:05:05.319Z,1002.65
2019-05-22T04:06:05.326Z,1002.62
2019-05-22T04:07:05.297Z,1002.65
2019-05-22T04:08:05.309Z,1002.63
2019-05-22T04:09:05.289Z,1002.72
2019-05-22T04:10:05.269Z,1002.64
2019-05-22T04:11:05.316Z,1002.67
2019-05-22T04:12:05.256Z,1002.72
2019-05-22T04:13:05.236Z,1002.70
2019-05-22T04:14:05.229Z,1002.73
2019-05-22T04:15:05.212Z,1002.77
2019-05-22T04:16:05.211Z,1002.74
2019-05-22T04:17:05.194Z,1002.68
2019-05-22T04:18:05.190Z,1002.61
2019-05-22T04:19:05.179Z,1002.66
2019-05-22T04:20:05.163Z,1002.59
2019-05-22T04:21:05.165Z,1002.59
2019-05-22T04:22:05.150Z,1002.65
2019-05-22T04:23:05.131Z,1002.61
2019-05-22T04:24:05.116Z,1002.60
2019-05-22T04:25:05.115Z,1002.60
2019-05-22T04:26:05.157Z,1002.63
2019-05-22T04:27:05.090Z,1002.61
2019-05-22T04:28:05.075Z,1002.61
2019-05-22T04:29:05.096Z,1002.59
2019-05-22T04:30:05.049Z,1002.62
2019-05-22T04:31:05.040Z,1002.61
2019-05-22T04:32:05.041Z,1002.62
2019-05-22T04:33:15.242Z,1002.66
2019-05-22T04:34:05.009Z,1002.60
2019-05-22T04:35:05.046Z,1002.57
2019-05-22T04:36:04.986Z,1002.59
2019-05-22T04:37:05.034Z,1002.59
2019-05-22T04:38:04.972Z,1002.57
2019-05-22T04:39:04.952Z,1002.66
2019-05-22T04:40:04.942Z,1002.68
2019-05-22T04:41:04.935Z,1002.65
2019-05-22T04:42:04.935Z,1002.67
2019-05-22T04:43:04.919Z,1002.67
2019-05-22T04:44:04.898Z,1002.65
2019-05-22T04:45:04.890Z,1002.66
2019-05-22T04:46:04.876Z,1002.69
2019-05-22T04:47:04.867Z,1002.68
2019-05-22T04:48:04.873Z,1002.63
2019-05-22T04:49:04.848Z,1002.67
2019-05-22T04:50:07.867Z,1002.63
2019-05-22T04:51:04.830Z,1002.63
2019-05-22T04:52:04.810Z,1002.63
2019-05-22T04:53:04.798Z,1002.63
2019-05-22T04:54:04.829Z,1002.55
2019-05-22T04:55:04.776Z,1002.55
2019-05-22T04:56:04.820Z,1002.60
2019-05-22T04:57:04.760Z,1002.61
2019-05-22T04:58:04.746Z,1002.60
2019-05-22T04:59:04.737Z,1002.62
2019-05-22T05:00:04.736Z,1002.60
2019-05-22T05:01:04.717Z,1002.57
2019-05-22T05:02:04.705Z,1002.62
2019-05-22T05:03:04.697Z,1002.61
2019-05-22T05:04:17.050Z,1002.65
2019-05-22T05:05:04.707Z,1002.67
2019-05-22T05:06:06.820Z,1002.61
2019-05-22T05:07:04.650Z,1002.66
2019-05-22T05:08:04.635Z,1002.66
2019-05-22T05:09:04.627Z,1002.67
2019-05-22T05:10:04.615Z,1002.68
2019-05-22T05:11:04.613Z,1002.68
2019-05-22T05:12:04.597Z,1002.74
2019-05-22T05:13:04.580Z,1002.69
2019-05-22T05:14:04.569Z,1002.70
2019-05-22T05:15:04.563Z,1002.69
2019-05-22T05:16:04.559Z,1002.75
2019-05-22T05:17:04.542Z,1002.68
2019-05-22T05:18:04.531Z,1002.70
2019-05-22T05:19:04.529Z,1002.71
2019-05-22T05:20:04.509Z,1002.65
2019-05-22T05:21:04.534Z,1002.67
2019-05-22T05:22:04.485Z,1002.59
2019-05-22T05:23:04.473Z,1002.64
2019-05-22T05:24:04.468Z,1002.69
2019-05-22T05:25:04.458Z,1002.60
2019-05-22T05:26:04.441Z,1002.60
2019-05-22T05:27:04.441Z,1002.63
2019-05-22T05:28:04.417Z,1002.62
2019-05-22T05:29:04.449Z,1002.64
2019-05-22T05:30:04.394Z,1002.66
2019-05-22T05:31:04.430Z,1002.61
2019-05-22T05:32:04.377Z,1002.65
2019-05-22T05:33:04.369Z,1002.70
2019-05-22T05:34:04.351Z,1002.67
2019-05-22T05:35:15.611Z,1002.69
2019-05-22T05:36:04.332Z,1002.66
2019-05-22T05:37:04.334Z,1002.63
2019-05-22T05:38:04.314Z,1002.66
2019-05-22T05:39:04.297Z,1002.65
2019-05-22T05:40:04.294Z,1002.66
2019-05-22T05:41:04.290Z,1002.65
2019-05-22T05:42:04.310Z,1002.69
2019-05-22T05:43:04.259Z,1002.68
2019-05-22T05:44:04.249Z,1002.71
2019-05-22T05:45:04.235Z,1002.72
2019-05-22T05:46:04.220Z,1002.72
2019-05-22T05:47:04.212Z,1002.78
2019-05-22T05:48:04.224Z,1002.78
2019-05-22T05:49:04.188Z,1002.77
2019-05-22T05:50:04.178Z,1002.84
2019-05-22T05:51:04.172Z,1002.77
2019-05-22T05:52:04.163Z,1002.78
2019-05-22T05:53:04.145Z,1002.81
2019-05-22T05:54:04.151Z,1002.75
2019-05-22T05:55:04.145Z,1002.75
2019-05-22T05:56:04.119Z,1002.73
2019-05-22T05:57:04.105Z,1002.71
2019-05-22T05:58:04.106Z,1002.74
2019-05-22T05:59:04.246Z,1002.74
2019-05-22T06:00:04.071Z,1002.76
2019-05-22T06:01:04.111Z,1002.71
2019-05-22T06:02:04.053Z,1002.70
2019-05-22T06:03:04.044Z,1002.67
2019-05-22T06:04:04.074Z,1002.68
2019-05-22T06:05:04.017Z,1002.69
2019-05-22T06:06:15.721Z,1002.67
2019-05-22T06:07:03.994Z,1002.74
2019-05-22T06:08:03.987Z,1002.66
2019-05-22T06:09:03.972Z,1002.71
2019-05-22T06:10:03.977Z,1002.64
2019-05-22T06:11:03.958Z,1002.70
2019-05-22T06:12:05.795Z,1002.71
2019-05-22T06:13:03.935Z,1002.75
2019-05-22T06:14:03.920Z,1002.70
2019-05-22T06:15:03.949Z,1002.70
2019-05-22T06:16:03.898Z,1002.66
2019-05-22T06:17:03.894Z,1002.65
2019-05-22T06:18:03.875Z,1002.63
2019-05-22T06:19:03.869Z,1002.61
2019-05-22T06:20:03.855Z,1002.60
2019-05-22T06:21:04.736Z,1002.57
2019-05-22T06:22:03.839Z,1002.63
2019-05-22T06:23:03.821Z,1002.62
2019-05-22T06:24:03.818Z,1002.58
2019-05-22T06:25:04.022Z,1002.64
2019-05-22T06:26:03.795Z,1002.58
2019-05-22T06:27:03.792Z,1002.62
2019-05-22T06:28:03.766Z,1002.59
2019-05-22T06:29:03.754Z,1002.57
2019-05-22T06:30:03.751Z,1002.65
2019-05-22T06:31:03.774Z,1002.60
2019-05-22T06:32:03.725Z,1002.62
2019-05-22T06:33:03.715Z,1002.55
2019-05-22T06:34:03.704Z,1002.52
2019-05-22T06:35:03.693Z,1002.54
2019-05-22T06:36:03.683Z,1002.53
2019-05-22T06:37:15.748Z,1002.54
2019-05-22T06:38:03.656Z,1002.50
2019-05-22T06:39:03.644Z,1002.52
2019-05-22T06:40:03.639Z,1002.45
2019-05-22T06:41:03.623Z,1002.47
2019-05-22T06:42:03.621Z,1002.41
2019-05-22T06:43:03.602Z,1002.40
2019-05-22T06:44:03.590Z,1002.37
2019-05-22T06:45:03.989Z,1002.33
2019-05-22T06:46:03.568Z,1002.37
2019-05-22T06:47:03.575Z,1002.36
2019-05-22T06:48:03.552Z,1002.36
2019-05-22T06:49:03.546Z,1002.38
2019-05-22T06:50:03.525Z,1002.36
2019-05-22T06:51:18.309Z,1002.34
2019-05-22T06:52:04.503Z,1002.33
2019-05-22T06:53:09.777Z,1002.35
2019-05-22T06:54:04.480Z,1002.33
2019-05-22T06:55:03.493Z,1002.34
2019-05-22T06:56:03.463Z,1002.34
2019-05-22T06:57:03.453Z,1002.35
2019-05-22T06:58:03.458Z,1002.34
2019-05-22T06:59:03.436Z,1002.31
2019-05-22T07:00:14.031Z,1002.28
2019-05-22T07:01:04.408Z,1002.32
2019-05-22T07:02:03.396Z,1002.28
2019-05-22T07:03:03.401Z,1002.26
2019-05-22T07:04:03.442Z,1002.28
2019-05-22T07:05:03.371Z,1002.31
2019-05-22T07:06:03.396Z,1002.28
2019-05-22T07:07:03.927Z,1002.33
2019-05-22T07:08:15.302Z,1002.27
2019-05-22T07:09:03.319Z,1002.28
2019-05-22T07:10:03.314Z,1002.30
2019-05-22T07:11:03.300Z,1002.27
2019-05-22T07:12:03.288Z,1002.31
2019-05-22T07:13:03.281Z,1002.31
2019-05-22T07:14:03.307Z,1002.32
2019-05-22T07:15:03.263Z,1002.36
2019-05-22T07:16:03.266Z,1002.39
2019-05-22T07:17:03.241Z,1002.36
2019-05-22T07:18:03.277Z,1002.41
2019-05-22T07:19:03.232Z,1002.40
2019-05-22T07:20:03.205Z,1002.39
2019-05-22T07:21:03.197Z,1002.36
2019-05-22T07:22:03.184Z,1002.35
2019-05-22T07:23:03.168Z,1002.35
2019-05-22T07:24:03.169Z,1002.39
2019-05-22T07:25:03.160Z,1002.31
2019-05-22T07:26:03.144Z,1002.37
2019-05-22T07:27:03.127Z,1002.32
2019-05-22T07:28:03.130Z,1002.33
2019-05-22T07:29:05.215Z,1002.35
2019-05-22T07:30:03.246Z,1002.41
2019-05-22T07:31:03.088Z,1002.38
2019-05-22T07:32:03.069Z,1002.35
2019-05-22T07:33:03.073Z,1002.41
2019-05-22T07:34:03.055Z,1002.42
2019-05-22T07:35:03.051Z,1002.44
2019-05-22T07:36:09.838Z,1002.41
2019-05-22T07:37:04.018Z,1002.43
2019-05-22T07:38:03.015Z,1002.41
2019-05-22T07:39:13.426Z,1002.47
2019-05-22T07:40:02.998Z,1002.45
2019-05-22T07:41:02.987Z,1002.44
2019-05-22T07:42:02.964Z,1002.42
2019-05-22T07:43:02.955Z,1002.46
2019-05-22T07:44:02.948Z,1002.43
2019-05-22T07:45:02.933Z,1002.43
2019-05-22T07:46:02.932Z,1002.41
2019-05-22T07:47:02.911Z,1002.49
2019-05-22T07:48:03.227Z,1002.46
2019-05-22T07:49:02.890Z,1002.43
2019-05-22T07:50:02.881Z,1002.44
2019-05-22T07:51:02.914Z,1002.48
2019-05-22T07:52:02.854Z,1002.44
2019-05-22T07:53:02.845Z,1002.47
2019-05-22T07:54:02.833Z,1002.46
2019-05-22T07:55:02.820Z,1002.47
2019-05-22T07:56:02.816Z,1002.44
2019-05-22T07:57:02.838Z,1002.43
2019-05-22T07:58:02.790Z,1002.44
2019-05-22T07:59:02.779Z,1002.39
2019-05-22T08:00:02.786Z,1002.42
2019-05-22T08:01:02.778Z,1002.32
2019-05-22T08:02:02.746Z,1002.42
2019-05-22T08:03:02.743Z,1002.40
2019-05-22T08:04:02.723Z,1002.42
2019-05-22T08:05:02.717Z,1002.43
2019-05-22T08:06:02.721Z,1002.40
2019-05-22T08:07:02.710Z,1002.35
2019-05-22T08:08:02.684Z,1002.43
2019-05-22T08:09:02.668Z,1002.42
2019-05-22T08:10:14.283Z,1002.38
2019-05-22T08:11:02.651Z,1002.39
2019-05-22T08:12:02.638Z,1002.39
2019-05-22T08:13:02.644Z,1002.44
2019-05-22T08:14:02.619Z,1002.34
2019-05-22T08:15:02.609Z,1002.33
2019-05-22T08:16:02.665Z,1002.37
2019-05-22T08:17:02.588Z,1002.33
2019-05-22T08:18:02.578Z,1002.26
2019-05-22T08:19:02.574Z,1002.32
2019-05-22T08:20:02.552Z,1002.30
2019-05-22T08:21:02.567Z,1002.27
2019-05-22T08:22:07.391Z,1002.28
2019-05-22T08:23:03.530Z,1002.27
2019-05-22T08:24:02.518Z,1002.27
2019-05-22T08:25:02.497Z,1002.28
2019-05-22T08:26:02.488Z,1002.21
2019-05-22T08:27:02.479Z,1002.22
2019-05-22T08:28:02.504Z,1002.27
2019-05-22T08:29:02.579Z,1002.22
2019-05-22T08:30:02.449Z,1002.20
2019-05-22T08:31:02.436Z,1002.20
2019-05-22T08:32:02.421Z,1002.26
2019-05-22T08:33:02.448Z,1002.23
2019-05-22T08:34:02.420Z,1002.20
2019-05-22T08:35:02.398Z,1002.18
2019-05-22T08:36:02.379Z,1002.22
2019-05-22T08:37:02.377Z,1002.19
2019-05-22T08:38:02.354Z,1002.23
2019-05-22T08:39:02.388Z,1002.18
2019-05-22T08:40:03.085Z,1002.16
2019-05-22T08:41:14.221Z,1002.20
2019-05-22T08:42:02.341Z,1002.18
2019-05-22T08:43:02.339Z,1002.19
2019-05-22T08:44:16.211Z,1002.17
2019-05-22T08:45:03.314Z,1002.17
2019-05-22T08:46:02.280Z,1002.17
2019-05-22T08:47:02.259Z,1002.19
2019-05-22T08:48:02.246Z,1002.12
2019-05-22T08:49:02.240Z,1002.13
2019-05-22T08:50:02.332Z,1002.13
2019-05-22T08:51:02.229Z,1002.11
2019-05-22T08:52:02.210Z,1002.13
2019-05-22T08:53:02.199Z,1002.09
2019-05-22T08:54:05.788Z,1002.11
2019-05-22T08:55:02.169Z,1002.11
2019-05-22T08:56:02.169Z,1002.14
2019-05-22T08:57:02.149Z,1002.12
2019-05-22T08:58:02.155Z,1002.08
2019-05-22T08:59:18.390Z,1002.07
2019-05-22T09:00:03.118Z,1002.06
2019-05-22T09:01:02.199Z,1002.03
2019-05-22T09:02:02.092Z,1002.00
2019-05-22T09:03:02.089Z,1002.04
2019-05-22T09:04:02.074Z,1001.99
2019-05-22T09:05:02.102Z,1002.01
2019-05-22T09:06:02.057Z,1001.98
2019-05-22T09:07:02.074Z,1001.98
2019-05-22T09:08:02.031Z,1002.01
2019-05-22T09:09:02.016Z,1002.04
2019-05-22T09:10:02.008Z,1002.03
2019-05-22T09:11:01.996Z,1002.03
2019-05-22T09:12:12.467Z,1002.04
2019-05-22T09:13:01.977Z,1002.06
2019-05-22T09:14:01.959Z,1002.00
2019-05-22T09:15:01.956Z,1001.99
2019-05-22T09:16:02.228Z,1001.96
2019-05-22T09:17:01.935Z,1001.96
2019-05-22T09:18:01.927Z,1001.93
2019-05-22T09:19:01.916Z,1001.90
2019-05-22T09:20:01.933Z,1001.88
2019-05-22T09:21:01.887Z,1001.86
2019-05-22T09:22:01.886Z,1001.85
2019-05-22T09:23:01.905Z,1001.85
2019-05-22T09:24:01.860Z,1001.85
2019-05-22T09:25:02.107Z,1001.83
2019-05-22T09:26:01.833Z,1001.81
2019-05-22T09:27:02.941Z,1001.78
2019-05-22T09:28:01.811Z,1001.78
2019-05-22T09:29:01.811Z,1001.71
2019-05-22T09:30:01.788Z,1001.79
2019-05-22T09:31:01.775Z,1001.73
2019-05-22T09:32:01.770Z,1001.72
2019-05-22T09:33:01.755Z,1001.72
2019-05-22T09:34:01.842Z,1001.70
2019-05-22T09:35:01.732Z,1001.71
2019-05-22T09:36:01.728Z,1001.74
2019-05-22T09:37:01.708Z,1001.68
2019-05-22T09:38:01.709Z,1001.67
2019-05-22T09:39:01.776Z,1001.65
2019-05-22T09:40:01.682Z,1001.68
2019-05-22T09:41:01.672Z,1001.67
2019-05-22T09:42:01.659Z,1001.61
2019-05-22T09:43:12.635Z,1001.57
2019-05-22T09:44:01.633Z,1001.64
2019-05-22T09:45:01.637Z,1001.56
2019-05-22T09:46:01.619Z,1001.60
2019-05-22T09:47:01.622Z,1001.62
2019-05-22T09:48:01.617Z,1001.62
2019-05-22T09:49:01.633Z,1001.66
2019-05-22T09:50:01.573Z,1001.62
2019-05-22T09:51:01.560Z,1001.66
2019-05-22T09:52:01.547Z,1001.63
2019-05-22T09:53:01.537Z,1001.60
2019-05-22T09:54:01.535Z,1001.71
2019-05-22T09:55:01.554Z,1001.62
2019-05-22T09:56:01.502Z,1001.60
2019-05-22T09:57:01.495Z,1001.61
2019-05-22T09:58:01.483Z,1001.61
2019-05-22T09:59:01.476Z,1001.56
2019-05-22T10:00:01.553Z,1001.57
2019-05-22T10:01:01.498Z,1001.56
2019-05-22T10:02:01.999Z,1001.57
2019-05-22T10:03:01.426Z,1001.52
2019-05-22T10:04:01.421Z,1001.55
2019-05-22T10:05:01.408Z,1001.53
2019-05-22T10:06:01.561Z,1001.54
2019-05-22T10:07:01.391Z,1001.52
2019-05-22T10:08:01.946Z,1001.52
2019-05-22T10:09:01.362Z,1001.44
2019-05-22T10:10:01.390Z,1001.44
2019-05-22T10:11:01.390Z,1001.43
2019-05-22T10:12:01.329Z,1001.47
2019-05-22T10:13:01.329Z,1001.45
2019-05-22T10:14:12.619Z,1001.42
2019-05-22T10:15:01.527Z,1001.39
2019-05-22T10:16:01.291Z,1001.36
2019-05-22T10:17:01.283Z,1001.42
2019-05-22T10:18:01.264Z,1001.34
2019-05-22T10:19:01.253Z,1001.41
2019-05-22T10:20:01.259Z,1001.37
2019-05-22T10:21:01.231Z,1001.34
2019-05-22T10:22:01.232Z,1001.35
2019-05-22T10:23:15.098Z,1001.36
2019-05-22T10:24:02.201Z,1001.32
2019-05-22T10:25:14.617Z,1001.26
2019-05-22T10:26:02.176Z,1001.26
2019-05-22T10:27:01.207Z,1001.21
2019-05-22T10:28:01.171Z,1001.23
2019-05-22T10:29:01.163Z,1001.23
2019-05-22T10:30:01.185Z,1001.21
2019-05-22T10:31:01.624Z,1001.18
2019-05-22T10:32:01.115Z,1001.18
2019-05-22T10:33:01.109Z,1001.20
2019-05-22T10:34:01.091Z,1001.20
2019-05-22T10:35:01.159Z,1001.19
2019-05-22T10:36:01.077Z,1001.13
2019-05-22T10:37:01.064Z,1001.15
2019-05-22T10:38:01.060Z,1001.08
2019-05-22T10:39:01.048Z,1001.13
2019-05-22T10:40:01.024Z,1001.11
2019-05-22T10:41:01.015Z,1001.09
2019-05-22T10:42:01.009Z,1001.08
2019-05-22T10:43:01.006Z,1001.11
2019-05-22T10:44:00.987Z,1001.07
2019-05-22T10:45:11.060Z,1001.08
2019-05-22T10:46:00.977Z,1001.07
2019-05-22T10:47:00.951Z,1001.03
2019-05-22T10:48:00.941Z,1001.03
2019-05-22T10:49:00.956Z,1001.01
2019-05-22T10:50:00.916Z,1000.98
2019-05-22T10:51:00.905Z,1000.92
2019-05-22T10:52:00.894Z,1000.91
2019-05-22T10:53:00.890Z,1000.90
2019-05-22T10:54:00.870Z,1000.95
2019-05-22T10:55:00.873Z,1000.93
2019-05-22T10:56:00.854Z,1000.96
2019-05-22T10:57:00.846Z,1000.94
2019-05-22T10:58:00.827Z,1000.95
2019-05-22T10:59:01.738Z,1000.91
2019-05-22T11:00:00.850Z,1000.93
2019-05-22T11:01:00.793Z,1000.89
2019-05-22T11:02:00.787Z,1000.89
2019-05-22T11:03:00.772Z,1000.89
2019-05-22T11:04:00.766Z,1000.83
2019-05-22T11:05:00.751Z,1000.82
2019-05-22T11:06:06.979Z,1000.77
2019-05-22T11:07:01.733Z,1000.79
2019-05-22T11:08:00.787Z,1000.75
2019-05-22T11:09:00.710Z,1000.74
2019-05-22T11:10:00.711Z,1000.77
2019-05-22T11:11:00.725Z,1000.78
2019-05-22T11:12:00.675Z,1000.77
2019-05-22T11:13:00.663Z,1000.69
2019-05-22T11:14:02.124Z,1000.73
2019-05-22T11:15:00.644Z,1000.69
2019-05-22T11:16:11.175Z,1000.64
2019-05-22T11:17:01.518Z,1000.65
2019-05-22T11:18:00.615Z,1000.58
2019-05-22T11:19:00.606Z,1000.62
2019-05-22T11:20:00.589Z,1000.58
2019-05-22T11:21:00.574Z,1000.59
2019-05-22T11:22:00.612Z,1000.59
2019-05-22T11:23:00.556Z,1000.60
2019-05-22T11:24:00.544Z,1000.56
2019-05-22T11:25:00.538Z,1000.56
2019-05-22T11:26:00.528Z,1000.60
2019-05-22T11:27:00.511Z,1000.53
2019-05-22T11:28:00.525Z,1000.51
2019-05-22T11:29:00.495Z,1000.53
2019-05-22T11:30:00.484Z,1000.56
2019-05-22T11:31:00.506Z,1000.51
2019-05-22T11:32:00.456Z,1000.48
2019-05-22T11:33:00.459Z,1000.52
2019-05-22T11:34:00.472Z,1000.49
2019-05-22T11:35:00.771Z,1000.47
2019-05-22T11:36:00.417Z,1000.50
2019-05-22T11:37:00.408Z,1000.48
2019-05-22T11:38:00.413Z,1000.51
2019-05-22T11:39:00.379Z,1000.43
2019-05-22T11:40:00.380Z,1000.43
2019-05-22T11:41:00.361Z,1000.42
2019-05-22T11:42:00.372Z,1000.41
2019-05-22T11:43:00.394Z,1000.40
2019-05-22T11:44:00.334Z,1000.35
2019-05-22T11:45:00.317Z,1000.35
2019-05-22T11:46:00.313Z,1000.34
2019-05-22T11:47:10.384Z,1000.37
2019-05-22T11:48:00.288Z,1000.35
2019-05-22T11:49:00.281Z,1000.35
2019-05-22T11:50:00.330Z,1000.32
2019-05-22T11:51:00.968Z,1000.29
2019-05-22T11:52:00.237Z,1000.31
2019-05-22T11:53:00.234Z,1000.29
2019-05-22T11:54:09.177Z,1000.27
2019-05-22T11:55:01.221Z,1000.26
2019-05-22T11:56:00.204Z,1000.27
2019-05-22T11:57:00.183Z,1000.24
2019-05-22T11:58:00.180Z,1000.19
2019-05-22T11:59:00.164Z,1000.20
2019-05-22T12:00:00.163Z,1000.16
2019-05-22T12:01:00.142Z,1000.16
2019-05-22T12:02:00.131Z,1000.12
2019-05-22T12:03:00.121Z,1000.11
2019-05-22T12:04:00.114Z,1000.11
2019-05-22T12:05:00.156Z,1000.08